Time;durP1;ratioP1;P1;durP2;ratioP2;P2;SDS_P1;SDS_P2;PMS_P1;PMS_P2;Temp;Humidity;BMP_temperature;BMP_pressure;BME280_temperature;BME280_humidity;BME280_pressure;Samples;Min_cycle;Max_cycle;Signal;HPM_P1;HPM_P2
2023/12/17 00:01:44;;;;;;;;;34.50;19.50;;;;;;;;5034355;28;28811;-79
2023/12/17 00:04:09;;;;;;;;;82.25;74.25;;;;;;;;5044109;28;28662;-76
2023/12/17 00:06:37;;;;;;;;;105.00;87.75;;;;;;;;5049448;28;28506;-78
2023/12/17 00:09:02;;;;;;;;;96.75;86.75;;;;;;;;5050069;28;28509;-76
2023/12/17 00:11:28;;;;;;;;;97.75;85.50;;;;;;;;5054053;28;28540;-82
2023/12/17 00:13:53;;;;;;;;;95.75;88.50;;;;;;;;5055406;28;28494;-81
2023/12/17 00:16:19;;;;;;;;;104.50;92.50;;;;;;;;5033026;28;30745;-82
2023/12/17 00:18:44;;;;;;;;;104.25;89.75;;;;;;;;5033365;28;30009;-82
2023/12/17 00:21:09;;;;;;;;;109.33;99.00;;;;;;;;5047439;28;28377;-81
2023/12/17 00:23:34;;;;;;;;;109.67;101.67;;;;;;;;5034410;28;28782;-82
2023/12/17 00:26:00;;;;;;;;;104.25;91.25;;;;;;;;5031216;28;29115;-79
2023/12/17 00:28:25;;;;;;;;;71.25;51.00;;;;;;;;5050086;28;28833;-80
2023/12/17 00:30:50;;;;;;;;;87.75;81.50;;;;;;;;5050423;28;28621;-78
2023/12/17 00:33:16;;;;;;;;;103.75;90.75;;;;;;;;5048730;28;28843;-78
2023/12/17 00:35:41;;;;;;;;;112.00;95.33;;;;;;;;5048710;28;28616;-77
2023/12/17 00:38:06;;;;;;;;;112.67;100.33;;;;;;;;5029296;28;29962;-79
2023/12/17 00:40:32;;;;;;;;;103.67;95.67;;;;;;;;5030178;28;29445;-78
2023/12/17 00:42:57;;;;;;;;;107.67;97.33;;;;;;;;5027028;28;28696;-78
2023/12/17 00:45:22;;;;;;;;;108.75;94.00;;;;;;;;5046387;28;28651;-78
2023/12/17 00:47:47;;;;;;;;;101.00;89.75;;;;;;;;5030912;28;29067;-77
2023/12/17 00:50:13;;;;;;;;;101.25;90.00;;;;;;;;5049739;28;27907;-77
2023/12/17 00:52:38;;;;;;;;;101.00;91.25;;;;;;;;5050486;28;28683;-79
2023/12/17 00:55:03;;;;;;;;;88.25;78.75;;;;;;;;5047633;28;28502;-78
2023/12/17 00:57:29;;;;;;;;;89.50;83.25;;;;;;;;5049830;28;28272;-78
2023/12/17 00:59:54;;;;;;;;;90.75;83.25;;;;;;;;5047543;28;28610;-77
2023/12/17 01:02:19;;;;;;;;;92.25;81.50;;;;;;;;5049885;28;29008;-77
2023/12/17 01:04:44;;;;;;;;;86.50;74.75;;;;;;;;5046754;28;28323;-77
2023/12/17 01:07:10;;;;;;;;;82.25;72.00;;;;;;;;5046611;28;28825;-77
2023/12/17 01:09:35;;;;;;;;;89.50;80.75;;;;;;;;5031703;28;28851;-77
2023/12/17 01:12:03;;;;;;;;;84.75;71.50;;;;;;;;5040890;28;28786;-78
2023/12/17 01:14:32;;;;;;;;;80.75;63.00;;;;;;;;5027579;28;29664;-79
2023/12/17 01:16:57;;;;;;;;;85.00;71.50;;;;;;;;5031739;28;30007;-78
2023/12/17 01:19:22;;;;;;;;;80.50;64.25;;;;;;;;5049291;28;28449;-77
2023/12/17 01:21:48;;;;;;;;;81.50;64.50;;;;;;;;5047247;28;29098;-77
2023/12/17 01:24:13;;;;;;;;;79.00;64.25;;;;;;;;5030918;28;28662;-78
2023/12/17 01:26:38;;;;;;;;;76.00;61.75;;;;;;;;5023741;28;29145;-78
2023/12/17 01:29:03;;;;;;;;;82.25;68.50;;;;;;;;5048374;28;28650;-77
2023/12/17 01:31:30;;;;;;;;;78.25;61.75;;;;;;;;5040342;28;28533;-79
2023/12/17 01:33:55;;;;;;;;;81.50;63.75;;;;;;;;5045506;28;28427;-77
2023/12/17 01:36:21;;;;;;;;;81.75;67.50;;;;;;;;5031176;28;29553;-78
2023/12/17 01:38:46;;;;;;;;;78.25;64.00;;;;;;;;5045424;28;28969;-80
2023/12/17 01:41:11;;;;;;;;;80.50;66.50;;;;;;;;5049059;28;28908;-76
2023/12/17 01:43:37;;;;;;;;;76.00;57.75;;;;;;;;5028140;28;29664;-77
2023/12/17 01:46:02;;;;;;;;;81.75;67.75;;;;;;;;5037872;28;28634;-77
2023/12/17 01:48:27;;;;;;;;;65.25;51.75;;;;;;;;5025023;28;30396;-78
2023/12/17 01:50:54;;;;;;;;;78.75;64.50;;;;;;;;5048411;28;28487;-76
2023/12/17 01:53:19;;;;;;;;;81.50;66.25;;;;;;;;5028794;28;29542;-78
2023/12/17 01:55:45;;;;;;;;;78.00;63.75;;;;;;;;5030593;28;29775;-78
2023/12/17 01:58:11;;;;;;;;;81.75;63.25;;;;;;;;5048244;28;28561;-78
2023/12/17 02:00:37;;;;;;;;;75.50;59.50;;;;;;;;5027910;28;28463;-77
2023/12/17 02:03:05;;;;;;;;;80.00;60.00;;;;;;;;5048936;28;28977;-78
2023/12/17 02:05:34;;;;;;;;;78.50;62.00;;;;;;;;5026773;28;30854;-78
2023/12/17 02:08:00;;;;;;;;;75.00;61.50;;;;;;;;5045142;28;28588;-78
2023/12/17 02:10:25;;;;;;;;;76.25;59.50;;;;;;;;5046406;28;28877;-79
2023/12/17 02:12:51;;;;;;;;;78.25;58.75;;;;;;;;5029218;28;29089;-76
2023/12/17 02:15:16;;;;;;;;;76.00;61.25;;;;;;;;5045177;28;28878;-79
2023/12/17 02:17:41;;;;;;;;;77.25;58.75;;;;;;;;5042590;28;28622;-78
2023/12/17 02:20:07;;;;;;;;;74.50;57.00;;;;;;;;5046953;28;28772;-78
2023/12/17 02:22:33;;;;;;;;;77.50;58.25;;;;;;;;5044753;28;28795;-79
2023/12/17 02:24:58;;;;;;;;;79.50;61.50;;;;;;;;5038538;28;28876;-76
2023/12/17 02:27:25;;;;;;;;;78.00;59.25;;;;;;;;5043245;28;28416;-78
2023/12/17 02:29:51;;;;;;;;;75.00;59.50;;;;;;;;5048643;28;28809;-77
2023/12/17 02:32:16;;;;;;;;;74.50;57.50;;;;;;;;5046532;28;29784;-77
2023/12/17 02:34:41;;;;;;;;;73.75;56.00;;;;;;;;5048687;28;28211;-79
2023/12/17 02:37:07;;;;;;;;;77.25;58.75;;;;;;;;5044922;28;30854;-79
2023/12/17 02:39:32;;;;;;;;;72.00;57.50;;;;;;;;5039814;28;28513;-78
2023/12/17 02:41:58;;;;;;;;;77.25;59.00;;;;;;;;5029170;28;28992;-77
2023/12/17 02:44:23;;;;;;;;;71.50;54.50;;;;;;;;5028117;28;29995;-76
2023/12/17 02:46:49;;;;;;;;;71.25;55.25;;;;;;;;5045893;28;28629;-78
2023/12/17 02:49:14;;;;;;;;;75.25;58.75;;;;;;;;5029697;28;28870;-76
2023/12/17 02:51:39;;;;;;;;;71.00;56.00;;;;;;;;5046893;28;28640;-77
2023/12/17 02:54:05;;;;;;;;;70.00;56.25;;;;;;;;5041275;28;30572;-77
2023/12/17 02:56:30;;;;;;;;;70.00;55.75;;;;;;;;5025712;28;29803;-78
2023/12/17 02:58:55;;;;;;;;;76.75;58.00;;;;;;;;5027903;28;28152;-77
2023/12/17 03:01:20;;;;;;;;;74.75;56.75;;;;;;;;5045796;28;29611;-76
2023/12/17 03:03:45;;;;;;;;;74.25;56.25;;;;;;;;5018341;28;30159;-76
2023/12/17 03:06:11;;;;;;;;;77.50;58.00;;;;;;;;5047763;28;29104;-78
2023/12/17 03:08:37;;;;;;;;;72.75;57.25;;;;;;;;5047358;28;28882;-78
2023/12/17 03:11:03;;;;;;;;;72.75;59.00;;;;;;;;5043817;28;28969;-77
2023/12/17 03:13:29;;;;;;;;;76.25;57.25;;;;;;;;5026808;28;28435;-77
2023/12/17 03:15:55;;;;;;;;;79.25;57.50;;;;;;;;5034503;28;29159;-76
2023/12/17 03:18:20;;;;;;;;;58.50;49.50;;;;;;;;5053786;28;28825;-77
2023/12/17 03:20:45;;;;;;;;;71.50;55.50;;;;;;;;5052744;28;28628;-77
2023/12/17 03:23:10;;;;;;;;;74.00;56.75;;;;;;;;5034199;28;31147;-78
2023/12/17 03:25:35;;;;;;;;;74.00;54.25;;;;;;;;5052596;28;28150;-79
2023/12/17 03:28:01;;;;;;;;;66.25;53.00;;;;;;;;5058035;28;28939;-82
2023/12/17 03:30:26;;;;;;;;;70.00;54.00;;;;;;;;5055014;28;28535;-82
2023/12/17 03:32:51;;;;;;;;;71.50;55.50;;;;;;;;5057758;28;28809;-81
2023/12/17 03:35:17;;;;;;;;;74.00;55.75;;;;;;;;5041507;28;28531;-82
2023/12/17 03:37:42;;;;;;;;;68.00;53.75;;;;;;;;5058197;28;28921;-81
2023/12/17 03:40:08;;;;;;;;;69.75;53.00;;;;;;;;5038934;28;29033;-82
2023/12/17 03:42:33;;;;;;;;;69.50;54.25;;;;;;;;5036875;28;29662;-82
2023/12/17 03:44:58;;;;;;;;;71.50;55.50;;;;;;;;5035352;28;28760;-81
2023/12/17 03:47:23;;;;;;;;;69.00;52.50;;;;;;;;5036310;28;28439;-80
2023/12/17 03:49:49;;;;;;;;;71.00;55.25;;;;;;;;5053951;28;28786;-81
2023/12/17 03:52:14;;;;;;;;;70.50;54.50;;;;;;;;5056152;28;29706;-82
2023/12/17 03:54:39;;;;;;;;;68.50;53.00;;;;;;;;5035876;28;29088;-83
2023/12/17 03:57:05;;;;;;;;;71.00;55.50;;;;;;;;5036194;28;28277;-80
2023/12/17 03:59:30;;;;;;;;;57.75;46.00;;;;;;;;5048778;28;28904;-82
2023/12/17 04:01:57;;;;;;;;;67.50;52.25;;;;;;;;5051754;28;28265;-82
2023/12/17 04:04:22;;;;;;;;;71.25;55.25;;;;;;;;5037302;28;28509;-81
2023/12/17 04:06:47;;;;;;;;;70.50;54.50;;;;;;;;5043666;28;28368;-83
2023/12/17 04:09:12;;;;;;;;;66.50;52.25;;;;;;;;5053762;28;28422;-83
2023/12/17 04:11:38;;;;;;;;;69.75;54.25;;;;;;;;5050022;28;28441;-81
2023/12/17 04:14:03;;;;;;;;;63.25;49.75;;;;;;;;5049469;28;28813;-81
2023/12/17 04:16:28;;;;;;;;;65.25;52.00;;;;;;;;5055337;28;28267;-78
2023/12/17 04:18:53;;;;;;;;;72.50;56.50;;;;;;;;5034323;28;29333;-79
2023/12/17 04:21:19;;;;;;;;;69.75;55.75;;;;;;;;5033737;28;29677;-78
2023/12/17 04:23:44;;;;;;;;;67.25;54.00;;;;;;;;5048786;28;28540;-77
2023/12/17 04:26:11;;;;;;;;;64.00;51.50;;;;;;;;5049101;28;28863;-79
2023/12/17 04:28:36;;;;;;;;;71.50;56.50;;;;;;;;5046548;28;28534;-75
2023/12/17 04:31:01;;;;;;;;;69.00;55.00;;;;;;;;5050407;28;29159;-78
2023/12/17 04:33:26;;;;;;;;;74.50;55.25;;;;;;;;5031399;28;29696;-80
2023/12/17 04:35:52;;;;;;;;;66.75;52.50;;;;;;;;5033506;28;28528;-80
2023/12/17 04:38:17;;;;;;;;;70.75;54.50;;;;;;;;5050129;28;29058;-79
2023/12/17 04:40:45;;;;;;;;;69.25;55.25;;;;;;;;5050981;28;28715;-80
2023/12/17 04:43:10;;;;;;;;;65.25;52.50;;;;;;;;5048892;28;28716;-77
2023/12/17 04:45:35;;;;;;;;;67.75;53.75;;;;;;;;5047370;28;28442;-77
2023/12/17 04:48:01;;;;;;;;;63.25;50.75;;;;;;;;5047745;28;28810;-78
2023/12/17 04:50:26;;;;;;;;;62.25;50.25;;;;;;;;5047961;28;28801;-76
2023/12/17 04:52:54;;;;;;;;;68.75;53.25;;;;;;;;5048182;28;28736;-78
2023/12/17 04:55:19;;;;;;;;;62.00;48.75;;;;;;;;5048170;28;28328;-78
2023/12/17 04:57:44;;;;;;;;;63.00;47.50;;;;;;;;5045206;28;28581;-76
2023/12/17 05:00:10;;;;;;;;;63.00;48.75;;;;;;;;5044179;28;28632;-77
2023/12/17 05:02:35;;;;;;;;;65.50;52.25;;;;;;;;5031015;28;29570;-77
2023/12/17 05:05:00;;;;;;;;;67.50;53.00;;;;;;;;5029578;28;28967;-76
2023/12/17 05:07:26;;;;;;;;;57.25;46.00;;;;;;;;5031755;28;28669;-82
2023/12/17 05:09:52;;;;;;;;;61.25;49.00;;;;;;;;5051103;28;28459;-83
2023/12/17 05:12:18;;;;;;;;;61.00;46.25;;;;;;;;5050816;28;28593;-81
2023/12/17 05:14:43;;;;;;;;;59.25;46.00;;;;;;;;5052618;28;28780;-82
2023/12/17 05:17:08;;;;;;;;;63.25;50.75;;;;;;;;5034029;28;29448;-75
2023/12/17 05:19:33;;;;;;;;;60.25;47.00;;;;;;;;5029312;28;29123;-78
2023/12/17 05:21:59;;;;;;;;;59.50;49.00;;;;;;;;5046938;28;28617;-77
2023/12/17 05:24:24;;;;;;;;;62.00;50.00;;;;;;;;5029254;28;28561;-76
2023/12/17 05:26:49;;;;;;;;;59.75;46.75;;;;;;;;5038592;28;28585;-78
2023/12/17 05:29:15;;;;;;;;;58.75;46.50;;;;;;;;5047354;28;28564;-77
2023/12/17 05:31:40;;;;;;;;;56.75;46.00;;;;;;;;5028336;28;29382;-77
2023/12/17 05:34:08;;;;;;;;;57.75;47.00;;;;;;;;5048475;28;28653;-77
2023/12/17 05:36:33;;;;;;;;;60.25;47.75;;;;;;;;5029393;28;29812;-77
2023/12/17 05:38:59;;;;;;;;;56.50;46.00;;;;;;;;5048820;28;28537;-76
2023/12/17 05:41:24;;;;;;;;;56.25;45.75;;;;;;;;5044210;28;28476;-78
2023/12/17 05:43:49;;;;;;;;;55.25;44.50;;;;;;;;5045786;28;28572;-76
2023/12/17 05:46:15;;;;;;;;;56.00;44.00;;;;;;;;5043566;28;28914;-75
2023/12/17 05:48:40;;;;;;;;;57.75;44.75;;;;;;;;5025870;28;29769;-77
2023/12/17 05:51:08;;;;;;;;;50.75;41.75;;;;;;;;5041629;28;28656;-76
2023/12/17 05:53:34;;;;;;;;;53.50;44.75;;;;;;;;5040435;28;29082;-78
2023/12/17 05:55:59;;;;;;;;;52.75;42.00;;;;;;;;5048375;28;28634;-75
2023/12/17 05:58:25;;;;;;;;;51.50;42.00;;;;;;;;5046485;28;28575;-77
2023/12/17 06:00:56;;;;;;;;;53.75;42.25;;;;;;;;5048330;28;28588;-78
2023/12/17 06:03:24;;;;;;;;;52.75;41.25;;;;;;;;5029960;28;28431;-76
2023/12/17 06:05:55;;;;;;;;;52.00;41.25;;;;;;;;5030227;28;29745;-77
2023/12/17 06:08:21;;;;;;;;;51.25;40.25;;;;;;;;5049265;28;28746;-76
2023/12/17 06:10:46;;;;;;;;;51.25;41.00;;;;;;;;5026134;28;29470;-77
2023/12/17 06:13:13;;;;;;;;;50.00;39.00;;;;;;;;5044139;28;28996;-77
2023/12/17 06:15:41;;;;;;;;;48.75;38.25;;;;;;;;5048619;28;28882;-77
2023/12/17 06:18:06;;;;;;;;;52.00;42.75;;;;;;;;5044762;28;28752;-76
2023/12/17 06:20:32;;;;;;;;;49.50;42.25;;;;;;;;5051102;28;28537;-77
2023/12/17 06:22:57;;;;;;;;;53.00;40.75;;;;;;;;5040857;28;28634;-77
2023/12/17 06:25:22;;;;;;;;;48.50;40.50;;;;;;;;5041811;28;28581;-77
2023/12/17 06:27:48;;;;;;;;;47.75;40.00;;;;;;;;5037636;28;29650;-77
2023/12/17 06:30:13;;;;;;;;;43.75;37.50;;;;;;;;5046190;28;28791;-77
2023/12/17 06:32:40;;;;;;;;;51.75;40.50;;;;;;;;5053938;28;28494;-82
2023/12/17 06:35:06;;;;;;;;;47.50;40.50;;;;;;;;5050804;28;28513;-82
2023/12/17 06:37:31;;;;;;;;;43.25;38.50;;;;;;;;5037972;28;29545;-81
2023/12/17 06:39:56;;;;;;;;;46.25;39.50;;;;;;;;5049113;28;29655;-81
2023/12/17 06:42:22;;;;;;;;;50.50;38.75;;;;;;;;5044400;28;28541;-81
2023/12/17 06:44:47;;;;;;;;;48.00;37.50;;;;;;;;5051137;28;29100;-81
2023/12/17 06:47:13;;;;;;;;;46.50;39.50;;;;;;;;5048063;28;30010;-83
2023/12/17 06:49:39;;;;;;;;;45.00;37.50;;;;;;;;5027555;28;28640;-81
2023/12/17 06:52:04;;;;;;;;;40.00;34.50;;;;;;;;5050632;28;28482;-81
2023/12/17 06:54:29;;;;;;;;;46.75;38.00;;;;;;;;5048722;28;27997;-81
2023/12/17 06:56:55;;;;;;;;;46.50;38.75;;;;;;;;5046126;28;28616;-82
2023/12/17 06:59:20;;;;;;;;;38.75;37.25;;;;;;;;5047135;28;28612;-82
2023/12/17 07:01:45;;;;;;;;;41.75;38.25;;;;;;;;5046213;28;29710;-82
2023/12/17 07:04:10;;;;;;;;;43.50;35.75;;;;;;;;5048214;28;28424;-81
2023/12/17 07:06:36;;;;;;;;;50.75;39.00;;;;;;;;5044734;28;28625;-81
2023/12/17 07:09:01;;;;;;;;;42.75;36.50;;;;;;;;5041094;28;28558;-83
2023/12/17 07:11:26;;;;;;;;;43.50;37.00;;;;;;;;5028086;28;28999;-82
2023/12/17 07:13:52;;;;;;;;;42.75;37.25;;;;;;;;5025541;28;28616;-81
2023/12/17 07:16:24;;;;;;;;;37.50;31.25;;;;;;;;5024943;28;29794;-83
2023/12/17 07:18:50;;;;;;;;;38.25;34.00;;;;;;;;5030421;28;28823;-84
2023/12/17 07:21:18;;;;;;;;;33.50;29.75;;;;;;;;5034991;28;28539;-85
2023/12/17 07:23:44;;;;;;;;;46.75;35.00;;;;;;;;5034292;28;29238;-80
2023/12/17 07:26:14;;;;;;;;;49.25;37.00;;;;;;;;5040632;28;29756;-88
2023/12/17 07:28:40;;;;;;;;;33.50;29.75;;;;;;;;5052220;28;28641;-86
2023/12/17 07:31:13;;;;;;;;;39.25;35.50;;;;;;;;5054684;28;28010;-87
2023/12/17 07:33:40;;;;;;;;;38.50;33.75;;;;;;;;5048106;28;28600;-86
2023/12/17 07:36:19;;;;;;;;;38.00;31.75;;;;;;;;5032922;28;28876;-87
2023/12/17 07:38:45;;;;;;;;;37.25;33.00;;;;;;;;5029713;28;29499;-86
2023/12/17 07:41:11;;;;;;;;;40.00;34.75;;;;;;;;5032224;28;29074;-86
2023/12/17 07:43:39;;;;;;;;;35.00;31.75;;;;;;;;5027956;28;29392;-85
2023/12/17 07:46:05;;;;;;;;;34.00;34.00;;;;;;;;5034724;28;29837;-84
2023/12/17 07:48:33;;;;;;;;;39.75;32.00;;;;;;;;5044287;28;28947;-86
2023/12/17 07:51:01;;;;;;;;;39.00;31.50;;;;;;;;5050915;28;28775;-86
2023/12/17 07:53:27;;;;;;;;;38.25;32.00;;;;;;;;5033291;28;28669;-85
2023/12/17 07:56:01;;;;;;;;;35.00;30.25;;;;;;;;5035977;28;31097;-86
2023/12/17 07:58:28;;;;;;;;;39.50;33.50;;;;;;;;5036272;28;28636;-85
2023/12/17 08:01:05;;;;;;;;;43.00;37.00;;;;;;;;5034807;28;28581;-87
2023/12/17 08:03:30;;;;;;;;;45.25;36.25;;;;;;;;5035918;28;29245;-85
2023/12/17 08:05:56;;;;;;;;;48.00;35.00;;;;;;;;5051765;28;29533;-85
2023/12/17 08:08:24;;;;;;;;;37.00;32.00;;;;;;;;5037244;28;28769;-86
2023/12/17 08:10:57;;;;;;;;;38.75;35.75;;;;;;;;5030486;28;28907;-86
2023/12/17 08:13:28;;;;;;;;;36.50;32.00;;;;;;;;5054986;28;28259;-85
2023/12/17 08:15:54;;;;;;;;;35.00;31.75;;;;;;;;5048049;28;28216;-85
2023/12/17 08:18:20;;;;;;;;;36.25;33.00;;;;;;;;5033688;28;28713;-84
2023/12/17 08:20:48;;;;;;;;;44.00;34.75;;;;;;;;5042031;28;28938;-82
2023/12/17 08:23:24;;;;;;;;;47.75;34.50;;;;;;;;5052549;28;28536;-83
2023/12/17 08:25:50;;;;;;;;;36.50;29.75;;;;;;;;5035990;28;28555;-84
2023/12/17 08:28:22;;;;;;;;;36.50;29.25;;;;;;;;5034100;28;28568;-81
2023/12/17 08:30:54;;;;;;;;;43.25;37.00;;;;;;;;5027298;28;28915;-81
2023/12/17 08:33:19;;;;;;;;;34.50;31.25;;;;;;;;5037948;28;29384;-84
2023/12/17 08:35:45;;;;;;;;;32.00;28.50;;;;;;;;5031045;28;28887;-78
2023/12/17 08:38:11;;;;;;;;;38.00;31.25;;;;;;;;5028715;28;28628;-81
2023/12/17 08:41:00;;;;;;;;;;;;;;;;;;;;;
2023/12/17 08:43:26;;;;;;;;;30.00;30.00;;;;;;;;5046009;28;58541;-81
2023/12/17 08:45:55;;;;;;;;;43.50;35.75;;;;;;;;5035349;28;29745;-84
2023/12/17 08:48:21;;;;;;;;;39.25;31.75;;;;;;;;5048998;28;28347;-83
2023/12/17 08:50:50;;;;;;;;;40.25;33.75;;;;;;;;5050699;28;28698;-84
2023/12/17 08:53:22;;;;;;;;;59.25;47.50;;;;;;;;5043847;28;29018;-85
2023/12/17 08:55:51;;;;;;;;;37.00;34.00;;;;;;;;5037672;28;29983;-88
2023/12/17 08:58:19;;;;;;;;;36.00;32.25;;;;;;;;5046486;28;28495;-88
2023/12/17 09:00:44;;;;;;;;;44.25;34.00;;;;;;;;5039488;28;27995;-87
2023/12/17 09:03:10;;;;;;;;;38.25;32.25;;;;;;;;5043311;28;28020;-85
2023/12/17 09:05:37;;;;;;;;;41.00;32.25;;;;;;;;5043059;28;29960;-88
2023/12/17 09:08:02;;;;;;;;;46.50;35.00;;;;;;;;5047773;28;28583;-87
2023/12/17 09:10:31;;;;;;;;;33.00;32.25;;;;;;;;5061369;28;28540;-85
2023/12/17 09:12:57;;;;;;;;;39.75;33.00;;;;;;;;5046125;28;29369;-86
2023/12/17 09:15:22;;;;;;;;;38.75;32.00;;;;;;;;5037542;28;29678;-88
2023/12/17 09:17:50;;;;;;;;;65.00;47.50;;;;;;;;5039729;28;28856;-86
2023/12/17 09:20:16;;;;;;;;;47.25;35.00;;;;;;;;5043810;28;28544;-88
2023/12/17 09:22:41;;;;;;;;;39.75;33.50;;;;;;;;5062847;28;28565;-84
2023/12/17 09:27:58;;;;;;;;;39.00;31.25;;;;;;;;5043156;28;28545;-83
2023/12/17 09:30:24;;;;;;;;;34.00;31.67;;;;;;;;5022246;28;28541;-82
2023/12/17 09:32:49;;;;;;;;;36.75;32.00;;;;;;;;5042651;28;28934;-83
2023/12/17 09:35:16;;;;;;;;;51.50;37.00;;;;;;;;5048398;28;29219;-82
2023/12/17 09:37:45;;;;;;;;;41.75;31.00;;;;;;;;5025889;28;28543;-83
2023/12/17 09:40:10;;;;;;;;;42.50;35.25;;;;;;;;5032617;28;28623;-82
2023/12/17 09:42:36;;;;;;;;;46.00;36.50;;;;;;;;5029467;28;29633;-81
2023/12/17 09:45:01;;;;;;;;;42.00;33.00;;;;;;;;5050943;28;28865;-84
2023/12/17 09:47:27;;;;;;;;;40.50;34.75;;;;;;;;5047991;28;28501;-81
2023/12/17 09:49:52;;;;;;;;;36.33;30.33;;;;;;;;5025374;28;28396;-80
2023/12/17 09:52:21;;;;;;;;;34.00;28.33;;;;;;;;5050901;28;28254;-83
2023/12/17 09:54:51;;;;;;;;;32.33;28.67;;;;;;;;5038865;28;29866;-83
2023/12/17 09:57:21;;;;;;;;;29.67;28.67;;;;;;;;5031405;28;28692;-82
2023/12/17 09:59:47;;;;;;;;;35.33;28.33;;;;;;;;5051283;28;28576;-83
2023/12/17 10:02:15;;;;;;;;;27.33;26.33;;;;;;;;5052385;28;28861;-82
2023/12/17 10:05:06;;;;;;;;;;;;;;;;;;;;;
2023/12/17 10:07:34;;;;;;;;;32.00;28.67;;;;;;;;4989459;28;55349;-85
2023/12/17 10:09:59;;;;;;;;;25.67;24.00;;;;;;;;5039750;28;28459;-85
2023/12/17 10:12:26;;;;;;;;;35.33;30.00;;;;;;;;5036142;28;29435;-89
2023/12/17 10:14:52;;;;;;;;;32.33;26.00;;;;;;;;5058907;28;28994;-86
2023/12/17 10:17:36;;;;;;;;;30.67;24.67;;;;;;;;5038610;28;29356;-85
2023/12/17 10:20:03;;;;;;;;;26.67;22.67;;;;;;;;5037618;28;28522;-86
2023/12/17 10:22:28;;;;;;;;;36.00;30.00;;;;;;;;5025718;28;28894;-83
2023/12/17 10:24:53;;;;;;;;;34.67;31.67;;;;;;;;5052522;28;28416;-85
2023/12/17 10:27:22;;;;;;;;;31.33;25.33;;;;;;;;5033720;28;28948;-87
2023/12/17 10:29:52;;;;;;;;;28.33;27.00;;;;;;;;5029139;28;28979;-85
2023/12/17 10:32:20;;;;;;;;;30.00;28.00;;;;;;;;5024034;28;29666;-86
2023/12/17 10:34:47;;;;;;;;;25.67;23.67;;;;;;;;5024574;28;28855;-88
2023/12/17 10:37:19;;;;;;;;;28.33;24.67;;;;;;;;5034693;28;28815;-82
2023/12/17 10:39:46;;;;;;;;;33.00;28.00;;;;;;;;5047939;28;29091;-82
2023/12/17 10:42:24;;;;;;;;;31.00;27.00;;;;;;;;5023889;28;28871;-88
2023/12/17 10:44:52;;;;;;;;;26.33;25.00;;;;;;;;5029356;28;30116;-85
2023/12/17 10:47:21;;;;;;;;;38.00;31.33;;;;;;;;5029984;28;28620;-82
2023/12/17 10:49:46;;;;;;;;;32.67;28.33;;;;;;;;5023967;28;28569;-82
2023/12/17 10:52:12;;;;;;;;;35.00;32.00;;;;;;;;5019134;28;28594;-83
2023/12/17 10:54:38;;;;;;;;;37.00;30.67;;;;;;;;5028687;28;29285;-83
2023/12/17 10:57:04;;;;;;;;;38.00;27.67;;;;;;;;5050275;28;28636;-85
2023/12/17 10:59:33;;;;;;;;;36.00;28.67;;;;;;;;5038719;28;28718;-82
2023/12/17 11:02:00;;;;;;;;;27.67;26.00;;;;;;;;5031204;28;28513;-83
2023/12/17 11:04:25;;;;;;;;;31.67;25.33;;;;;;;;5031324;28;30023;-84
2023/12/17 11:06:51;;;;;;;;;26.33;25.67;;;;;;;;5048337;28;28544;-80
2023/12/17 11:09:17;;;;;;;;;30.33;25.00;;;;;;;;5031677;28;28511;-83
2023/12/17 11:11:42;;;;;;;;;28.00;24.00;;;;;;;;5047498;28;27895;-83
2023/12/17 11:14:10;;;;;;;;;35.00;32.67;;;;;;;;5048473;28;29566;-82
2023/12/17 11:16:38;;;;;;;;;31.33;29.00;;;;;;;;5045913;28;28748;-81
2023/12/17 11:19:04;;;;;;;;;37.00;27.67;;;;;;;;5029132;28;28755;-83
2023/12/17 11:21:29;;;;;;;;;37.67;31.67;;;;;;;;5049529;28;28449;-84
2023/12/17 11:23:55;;;;;;;;;28.33;26.00;;;;;;;;5033248;28;29757;-83
2023/12/17 11:26:21;;;;;;;;;37.33;29.33;;;;;;;;5051656;28;29000;-82
2023/12/17 11:28:46;;;;;;;;;34.33;30.33;;;;;;;;5036443;28;28648;-83
2023/12/17 11:31:13;;;;;;;;;34.67;30.00;;;;;;;;5035405;28;28934;-83
2023/12/17 11:33:39;;;;;;;;;31.33;26.00;;;;;;;;5042899;28;28309;-84
2023/12/17 11:36:06;;;;;;;;;28.33;25.67;;;;;;;;5037309;28;28567;-84
2023/12/17 11:38:32;;;;;;;;;28.67;24.00;;;;;;;;5031008;28;28819;-83
2023/12/17 11:40:57;;;;;;;;;20.33;20.33;;;;;;;;5031759;28;29734;-81
2023/12/17 11:43:25;;;;;;;;;29.33;29.00;;;;;;;;5053036;28;28775;-87
2023/12/17 11:45:50;;;;;;;;;25.00;24.00;;;;;;;;5061639;28;28477;-83
2023/12/17 11:48:20;;;;;;;;;34.00;28.33;;;;;;;;5037231;28;28482;-84
2023/12/17 11:50:50;;;;;;;;;27.33;25.33;;;;;;;;5047910;28;29329;-87
2023/12/17 11:53:16;;;;;;;;;28.33;27.33;;;;;;;;5060987;28;29906;-86
2023/12/17 11:55:42;;;;;;;;;24.00;24.00;;;;;;;;5045385;28;28817;-87
2023/12/17 11:58:08;;;;;;;;;45.00;33.00;;;;;;;;5042321;28;28878;-86
2023/12/17 12:00:36;;;;;;;;;32.33;29.67;;;;;;;;5043320;28;28499;-88
2023/12/17 12:03:02;;;;;;;;;30.67;28.33;;;;;;;;5041225;28;29797;-86
2023/12/17 12:05:27;;;;;;;;;33.67;29.00;;;;;;;;5046091;28;28836;-85
2023/12/17 12:07:54;;;;;;;;;28.33;27.00;;;;;;;;5061380;28;27993;-86
2023/12/17 12:10:20;;;;;;;;;40.00;33.00;;;;;;;;5039127;28;29531;-89
2023/12/17 12:13:02;;;;;;;;;34.00;30.33;;;;;;;;5060711;28;28688;-90
2023/12/17 12:15:32;;;;;;;;;38.33;30.33;;;;;;;;5046416;28;28037;-88
2023/12/17 12:17:59;;;;;;;;;36.67;30.67;;;;;;;;5047660;28;28549;-87
2023/12/17 12:20:37;;;;;;;;;42.75;32.75;;;;;;;;5043416;28;28404;-87
2023/12/17 12:23:13;;;;;;;;;36.67;32.00;;;;;;;;5058911;28;28089;-88
2023/12/17 12:26:08;;;;;;;;;;;;;;;;;;;;;
2023/12/17 12:28:56;;;;;;;;;35.00;30.00;;;;;;;;5033438;28;27916;-90
2023/12/17 12:40:28;;;;;;;;;33.33;30.33;;;;;;;;5045484;28;28438;-69
2023/12/17 12:43:00;;;;;;;;;73.75;58.50;;;;;;;;5050917;28;29418;-70
2023/12/17 12:45:27;;;;;;;;;54.50;43.50;;;;;;;;5045466;28;29706;-69
2023/12/17 12:47:52;;;;;;;;;44.25;34.75;;;;;;;;5044297;28;28538;-70
2023/12/17 12:50:18;;;;;;;;;43.00;34.00;;;;;;;;5050333;28;28422;-69
2023/12/17 12:52:43;;;;;;;;;40.50;35.25;;;;;;;;5041562;28;28517;-71
2023/12/17 12:55:08;;;;;;;;;46.75;34.25;;;;;;;;5050413;28;28976;-76
2023/12/17 12:57:33;;;;;;;;;44.75;33.75;;;;;;;;5048225;28;28860;-70
2023/12/17 12:59:59;;;;;;;;;36.50;32.25;;;;;;;;5049502;28;28468;-73
2023/12/17 13:02:24;;;;;;;;;39.00;32.00;;;;;;;;5049247;28;29720;-71
2023/12/17 13:04:49;;;;;;;;;40.75;33.50;;;;;;;;5049312;28;28813;-71
2023/12/17 13:07:14;;;;;;;;;40.50;32.25;;;;;;;;5048988;28;28796;-71
2023/12/17 13:09:41;;;;;;;;;46.50;37.75;;;;;;;;5048667;28;28528;-71
2023/12/17 13:12:06;;;;;;;;;37.00;31.50;;;;;;;;5026383;28;28371;-72
2023/12/17 13:14:32;;;;;;;;;40.33;32.00;;;;;;;;5047737;28;29348;-73
2023/12/17 13:16:58;;;;;;;;;53.75;42.25;;;;;;;;5033332;28;28517;-72
2023/12/17 13:19:24;;;;;;;;;38.67;32.33;;;;;;;;5040525;28;28338;-71
2023/12/17 13:21:49;;;;;;;;;40.00;35.25;;;;;;;;5048282;28;28855;-74
2023/12/17 13:24:14;;;;;;;;;71.75;59.25;;;;;;;;5048756;28;29527;-72
2023/12/17 13:26:40;;;;;;;;;51.50;42.75;;;;;;;;5028550;28;29262;-72
2023/12/17 13:29:05;;;;;;;;;45.75;38.50;;;;;;;;5030822;28;28960;-71
2023/12/17 13:31:30;;;;;;;;;46.00;38.00;;;;;;;;5030001;28;29448;-70
2023/12/17 13:33:56;;;;;;;;;38.00;31.67;;;;;;;;5047176;28;28720;-69
2023/12/17 13:36:21;;;;;;;;;43.25;36.00;;;;;;;;5045778;28;28454;-69
2023/12/17 13:38:46;;;;;;;;;47.75;38.50;;;;;;;;5031093;28;28896;-70
2023/12/17 13:41:12;;;;;;;;;38.50;33.00;;;;;;;;5063320;28;28543;-70
2023/12/17 13:43:38;;;;;;;;;39.00;32.75;;;;;;;;5054595;28;28457;-70
2023/12/17 13:46:04;;;;;;;;;41.33;33.67;;;;;;;;5061166;28;28907;-70
2023/12/17 13:48:29;;;;;;;;;42.75;33.25;;;;;;;;5061579;28;28477;-69
2023/12/17 13:50:55;;;;;;;;;39.00;32.00;;;;;;;;5049213;28;28530;-70
2023/12/17 13:53:20;;;;;;;;;37.50;33.25;;;;;;;;5052498;28;29230;-70
2023/12/17 13:55:45;;;;;;;;;42.00;35.33;;;;;;;;5055625;28;28793;-70
2023/12/17 13:58:10;;;;;;;;;44.50;34.00;;;;;;;;5057184;28;28520;-70
2023/12/17 14:00:36;;;;;;;;;45.00;32.75;;;;;;;;5030149;28;29439;-70
2023/12/17 14:03:01;;;;;;;;;37.33;32.00;;;;;;;;5047530;28;28723;-70
2023/12/17 14:05:28;;;;;;;;;39.33;32.00;;;;;;;;5047705;28;28740;-70
2023/12/17 14:07:54;;;;;;;;;38.00;31.00;;;;;;;;5032535;28;28368;-71
2023/12/17 14:10:19;;;;;;;;;35.67;32.33;;;;;;;;5047666;28;28920;-69
2023/12/17 14:12:45;;;;;;;;;42.75;33.25;;;;;;;;5048772;28;28472;-70
2023/12/17 14:15:10;;;;;;;;;32.00;29.67;;;;;;;;5048653;28;28454;-70
2023/12/17 14:17:35;;;;;;;;;39.00;32.00;;;;;;;;5047577;28;28605;-70
2023/12/17 14:20:01;;;;;;;;;42.00;33.00;;;;;;;;5048596;28;28389;-70
2023/12/17 14:22:27;;;;;;;;;45.00;37.25;;;;;;;;5030257;28;29819;-73
2023/12/17 14:24:52;;;;;;;;;62.75;48.25;;;;;;;;5041290;28;28879;-74
2023/12/17 14:27:17;;;;;;;;;42.50;34.75;;;;;;;;5046562;28;28623;-72